METAR Data
IDs: Format: Raw Decoded Include TAF

Data at: 1953 UTC 17 Nov 2019

METAR for:EKRN (Ronne/Bornholm Arpt, --, DN)
Text:EKRN 171950Z AUTO 07015KT 9999 SCT092/// 09/07 Q1013
Temperature: 9.0°C ( 48°F)
Dewpoint: 7.0°C ( 45°F) [RH = 87%]
Pressure (altimeter):29.91 inches Hg (1013.0 mb)
Winds:from the ENE (70 degrees) at 17 MPH (15 knots; 7.7 m/s)
Visibility:6 or more sm (10+ km)
Ceiling:at least 12,000 feet AGL
Clouds: scattered clouds at 9200 feet AGL
Text:EKRN 171920Z AUTO 07015KT 9999 FEW077/// BKN094/// 09/06 Q1013
Temperature: 9.0°C ( 48°F)
Dewpoint: 6.0°C ( 43°F) [RH = 81%]
Pressure (altimeter):29.91 inches Hg (1013.0 mb)
Winds:from the ENE (70 degrees) at 17 MPH (15 knots; 7.7 m/s)
Visibility:6 or more sm (10+ km)
Ceiling:9400 feet AGL
Clouds: few clouds at 7700 feet AGL, broken clouds at 9400 feet AGL
Text:EKRN 171850Z AUTO 07016KT 9999 OVC093/// 09/05 Q1014
Temperature: 9.0°C ( 48°F)
Dewpoint: 5.0°C ( 41°F) [RH = 76%]
Pressure (altimeter):29.94 inches Hg (1014.0 mb)
Winds:from the ENE (70 degrees) at 18 MPH (16 knots; 8.2 m/s)
Visibility:6 or more sm (10+ km)
Ceiling:9300 feet AGL
Clouds: overcast cloud deck at 9300 feet AGL
Text:EKRN 171820Z AUTO 08015KT 9999 FEW059/// OVC084/// 09/05 Q1014
Temperature: 9.0°C ( 48°F)
Dewpoint: 5.0°C ( 41°F) [RH = 76%]
Pressure (altimeter):29.94 inches Hg (1014.0 mb)
Winds:from the E (80 degrees) at 17 MPH (15 knots; 7.7 m/s)
Visibility:6 or more sm (10+ km)
Ceiling:8400 feet AGL
Clouds: few clouds at 5900 feet AGL, overcast cloud deck at 8400 feet AGL
Text:EKRN 171750Z AUTO 07015KT 9999 OVC087/// 09/05 Q1014
Temperature: 9.0°C ( 48°F)
Dewpoint: 5.0°C ( 41°F) [RH = 76%]
Pressure (altimeter):29.94 inches Hg (1014.0 mb)
Winds:from the ENE (70 degrees) at 17 MPH (15 knots; 7.7 m/s)
Visibility:6 or more sm (10+ km)
Ceiling:8700 feet AGL
Clouds: overcast cloud deck at 8700 feet AGL
Text:EKRN 171720Z AUTO 06014KT 9999 SCT052/// BKN088/// 08/06 Q1015
Temperature: 8.0°C ( 46°F)
Dewpoint: 6.0°C ( 43°F) [RH = 87%]
Pressure (altimeter):29.97 inches Hg (1015.0 mb)
Winds:from the ENE (60 degrees) at 16 MPH (14 knots; 7.2 m/s)
Visibility:6 or more sm (10+ km)
Ceiling:8800 feet AGL
Clouds: scattered clouds at 5200 feet AGL, broken clouds at 8800 feet AGL
Text:EKRN 171650Z AUTO 07013KT 9999 BKN046/// OVC070/// 08/06 Q1015
Temperature: 8.0°C ( 46°F)
Dewpoint: 6.0°C ( 43°F) [RH = 87%]
Pressure (altimeter):29.97 inches Hg (1015.0 mb)
Winds:from the ENE (70 degrees) at 15 MPH (13 knots; 6.7 m/s)
Visibility:6 or more sm (10+ km)
Ceiling:4600 feet AGL
Clouds: broken clouds at 4600 feet AGL, overcast cloud deck at 7000 feet AGL
Text:EKRN 171620Z AUTO 06014KT 9999 OVC055/// 08/05 Q1015
Temperature: 8.0°C ( 46°F)
Dewpoint: 5.0°C ( 41°F) [RH = 81%]
Pressure (altimeter):29.97 inches Hg (1015.0 mb)
Winds:from the ENE (60 degrees) at 16 MPH (14 knots; 7.2 m/s)
Visibility:6 or more sm (10+ km)
Ceiling:5500 feet AGL
Clouds: overcast cloud deck at 5500 feet AGL
Text:EKRN 171550Z AUTO 05011KT 9999 OVC063/// 08/04 Q1015
Temperature: 8.0°C ( 46°F)
Dewpoint: 4.0°C ( 39°F) [RH = 76%]
Pressure (altimeter):29.97 inches Hg (1015.0 mb)
Winds:from the NE (50 degrees) at 13 MPH (11 knots; 5.7 m/s)
Visibility:6 or more sm (10+ km)
Ceiling:6300 feet AGL
Clouds: overcast cloud deck at 6300 feet AGL
Text:EKRN 171520Z AUTO 05009KT 9999 OVC073/// 08/03 Q1016
Temperature: 8.0°C ( 46°F)
Dewpoint: 3.0°C ( 37°F) [RH = 71%]
Pressure (altimeter):30.00 inches Hg (1016.0 mb)
Winds:from the NE (50 degrees) at 10 MPH (9 knots; 4.6 m/s)
Visibility:6 or more sm (10+ km)
Ceiling:7300 feet AGL
Clouds: overcast cloud deck at 7300 feet AGL
Text:EKRN 171450Z AUTO 05008KT 9999 FEW064/// OVC075/// 08/04 Q1016
Temperature: 8.0°C ( 46°F)
Dewpoint: 4.0°C ( 39°F) [RH = 76%]
Pressure (altimeter):30.00 inches Hg (1016.0 mb)
Winds:from the NE (50 degrees) at 9 MPH (8 knots; 4.1 m/s)
Visibility:6 or more sm (10+ km)
Ceiling:7500 feet AGL
Clouds: few clouds at 6400 feet AGL, overcast cloud deck at 7500 feet AGL
Text:EKRN 171420Z AUTO 05003KT 9999 OVC078/// 08/04 Q1017
Temperature: 8.0°C ( 46°F)
Dewpoint: 4.0°C ( 39°F) [RH = 76%]
Pressure (altimeter):30.03 inches Hg (1017.0 mb)
Winds:from the NE (50 degrees) at 3 MPH (3 knots; 1.5 m/s)
Visibility:6 or more sm (10+ km)
Ceiling:7800 feet AGL
Clouds: overcast cloud deck at 7800 feet AGL
Text:EKRN 171350Z AUTO 06004KT 9999 OVC088/// 08/05 Q1017
Temperature: 8.0°C ( 46°F)
Dewpoint: 5.0°C ( 41°F) [RH = 81%]
Pressure (altimeter):30.03 inches Hg (1017.0 mb)
Winds:from the ENE (60 degrees) at 5 MPH (4 knots; 2.1 m/s)
Visibility:6 or more sm (10+ km)
Ceiling:8800 feet AGL
Clouds: overcast cloud deck at 8800 feet AGL
Text:EKRN 171320Z AUTO 08004KT 9999 FEW093/// OVC100/// 08/05 Q1017
Temperature: 8.0°C ( 46°F)
Dewpoint: 5.0°C ( 41°F) [RH = 81%]
Pressure (altimeter):30.03 inches Hg (1017.0 mb)
Winds:from the E (80 degrees) at 5 MPH (4 knots; 2.1 m/s)
Visibility:6 or more sm (10+ km)
Ceiling:10000 feet AGL
Clouds: few clouds at 9300 feet AGL, overcast cloud deck at 10000 feet AGL
Text:EKRN 171250Z AUTO 10005KT 9999 OVC095/// 08/05 Q1017
Temperature: 8.0°C ( 46°F)
Dewpoint: 5.0°C ( 41°F) [RH = 81%]
Pressure (altimeter):30.03 inches Hg (1017.0 mb)
Winds:from the E (100 degrees) at 6 MPH (5 knots; 2.6 m/s)
Visibility:6 or more sm (10+ km)
Ceiling:9500 feet AGL
Clouds: overcast cloud deck at 9500 feet AGL
Text:EKRN 171220Z AUTO 12005KT 090V150 9999 OVC077/// 08/05 Q1017
Temperature: 8.0°C ( 46°F)
Dewpoint: 5.0°C ( 41°F) [RH = 81%]
Pressure (altimeter):30.03 inches Hg (1017.0 mb)
Winds:from the ESE (120 degrees) at 6 MPH (5 knots; 2.6 m/s)
Visibility:6 or more sm (10+ km)
Ceiling:7700 feet AGL
Clouds: overcast cloud deck at 7700 feet AGL
Text:EKRN 171150Z AUTO 14006KT 9999 OVC100/// 08/05 Q1017
Temperature: 8.0°C ( 46°F)
Dewpoint: 5.0°C ( 41°F) [RH = 81%]
Pressure (altimeter):30.03 inches Hg (1017.0 mb)
Winds:from the SE (140 degrees) at 7 MPH (6 knots; 3.1 m/s)
Visibility:6 or more sm (10+ km)
Ceiling:10000 feet AGL
Clouds: overcast cloud deck at 10000 feet AGL
Text:EKRN 171120Z AUTO 15006KT 9999 OVC120/// 09/05 Q1017
Temperature: 9.0°C ( 48°F)
Dewpoint: 5.0°C ( 41°F) [RH = 76%]
Pressure (altimeter):30.03 inches Hg (1017.0 mb)
Winds:from the SSE (150 degrees) at 7 MPH (6 knots; 3.1 m/s)
Visibility:6 or more sm (10+ km)
Ceiling:12000 feet AGL
Clouds: overcast cloud deck at 12000 feet AGL
Text:EKRN 171050Z AUTO 16007KT 9999 FEW120/// SCT140/// 09/05 Q1017
Temperature: 9.0°C ( 48°F)
Dewpoint: 5.0°C ( 41°F) [RH = 76%]
Pressure (altimeter):30.03 inches Hg (1017.0 mb)
Winds:from the SSE (160 degrees) at 8 MPH (7 knots; 3.6 m/s)
Visibility:6 or more sm (10+ km)
Ceiling:at least 12,000 feet AGL
Clouds: few clouds at 12000 feet AGL, scattered clouds at 14000 feet AGL
Text:EKRN 171020Z AUTO 18006KT 9999 BKN110/// 09/06 Q1017
Temperature: 9.0°C ( 48°F)
Dewpoint: 6.0°C ( 43°F) [RH = 81%]
Pressure (altimeter):30.03 inches Hg (1017.0 mb)
Winds:from the S (180 degrees) at 7 MPH (6 knots; 3.1 m/s)
Visibility:6 or more sm (10+ km)
Ceiling:11000 feet AGL
Clouds: broken clouds at 11000 feet AGL
Text:EKRN 170950Z AUTO 19008KT 9999 BKN120/// 09/05 Q1018
Temperature: 9.0°C ( 48°F)
Dewpoint: 5.0°C ( 41°F) [RH = 76%]
Pressure (altimeter):30.06 inches Hg (1018.0 mb)
Winds:from the S (190 degrees) at 9 MPH (8 knots; 4.1 m/s)
Visibility:6 or more sm (10+ km)
Ceiling:12000 feet AGL
Clouds: broken clouds at 12000 feet AGL
Text:EKRN 170920Z AUTO 21004KT 170V240 9999 NCD 08/05 Q1017
Temperature: 8.0°C ( 46°F)
Dewpoint: 5.0°C ( 41°F) [RH = 81%]
Pressure (altimeter):30.03 inches Hg (1017.0 mb)
Winds:from the SSW (210 degrees) at 5 MPH (4 knots; 2.1 m/s)
Visibility:6 or more sm (10+ km)
Ceiling:at least 12,000 feet AGL
Clouds:sky clear below 12,000 feet AGL
Text:EKRN 170850Z AUTO 20007KT 9999 NCD 08/05 Q1018
Temperature: 8.0°C ( 46°F)
Dewpoint: 5.0°C ( 41°F) [RH = 81%]
Pressure (altimeter):30.06 inches Hg (1018.0 mb)
Winds:from the SSW (200 degrees) at 8 MPH (7 knots; 3.6 m/s)
Visibility:6 or more sm (10+ km)
Ceiling:at least 12,000 feet AGL
Clouds:sky clear below 12,000 feet AGL
Text:EKRN 170820Z AUTO 20008KT 9999 NCD 08/05 Q1018
Temperature: 8.0°C ( 46°F)
Dewpoint: 5.0°C ( 41°F) [RH = 81%]
Pressure (altimeter):30.06 inches Hg (1018.0 mb)
Winds:from the SSW (200 degrees) at 9 MPH (8 knots; 4.1 m/s)
Visibility:6 or more sm (10+ km)
Ceiling:at least 12,000 feet AGL
Clouds:sky clear below 12,000 feet AGL
Text:EKRN 170750Z AUTO 20009KT 9999 NCD 08/05 Q1017
Temperature: 8.0°C ( 46°F)
Dewpoint: 5.0°C ( 41°F) [RH = 81%]
Pressure (altimeter):30.03 inches Hg (1017.0 mb)
Winds:from the SSW (200 degrees) at 10 MPH (9 knots; 4.6 m/s)
Visibility:6 or more sm (10+ km)
Ceiling:at least 12,000 feet AGL
Clouds:sky clear below 12,000 feet AGL
Text:EKRN 170720Z AUTO 20007KT 180V240 9999 NCD 07/04 Q1017
Temperature: 7.0°C ( 45°F)
Dewpoint: 4.0°C ( 39°F) [RH = 81%]
Pressure (altimeter):30.03 inches Hg (1017.0 mb)
Winds:from the SSW (200 degrees) at 8 MPH (7 knots; 3.6 m/s)
Visibility:6 or more sm (10+ km)
Ceiling:at least 12,000 feet AGL
Clouds:sky clear below 12,000 feet AGL
Text:EKRN 170650Z AUTO 20009KT 170V250 9999 NCD 07/04 Q1017
Temperature: 7.0°C ( 45°F)
Dewpoint: 4.0°C ( 39°F) [RH = 81%]
Pressure (altimeter):30.03 inches Hg (1017.0 mb)
Winds:from the SSW (200 degrees) at 10 MPH (9 knots; 4.6 m/s)
Visibility:6 or more sm (10+ km)
Ceiling:at least 12,000 feet AGL
Clouds:sky clear below 12,000 feet AGL
Text:EKRN 170620Z AUTO 21008KT 170V250 9999 NCD 07/05 Q1016
Temperature: 7.0°C ( 45°F)
Dewpoint: 5.0°C ( 41°F) [RH = 87%]
Pressure (altimeter):30.00 inches Hg (1016.0 mb)
Winds:from the SSW (210 degrees) at 9 MPH (8 knots; 4.1 m/s)
Visibility:6 or more sm (10+ km)
Ceiling:at least 12,000 feet AGL
Clouds:sky clear below 12,000 feet AGL
Text:EKRN 170550Z AUTO 21009KT 180V250 9999 FEW014/// 07/05 Q1016
Temperature: 7.0°C ( 45°F)
Dewpoint: 5.0°C ( 41°F) [RH = 87%]
Pressure (altimeter):30.00 inches Hg (1016.0 mb)
Winds:from the SSW (210 degrees) at 10 MPH (9 knots; 4.6 m/s)
Visibility:6 or more sm (10+ km)
Ceiling:at least 12,000 feet AGL
Clouds: few clouds at 1400 feet AGL
Text:EKRN 170520Z AUTO 20013KT 9999 FEW018/// 07/04 Q1016
Temperature: 7.0°C ( 45°F)
Dewpoint: 4.0°C ( 39°F) [RH = 81%]
Pressure (altimeter):30.00 inches Hg (1016.0 mb)
Winds:from the SSW (200 degrees) at 15 MPH (13 knots; 6.7 m/s)
Visibility:6 or more sm (10+ km)
Ceiling:at least 12,000 feet AGL
Clouds: few clouds at 1800 feet AGL
Text:EKRN 170450Z AUTO 21012KT 180V240 9999 NCD 07/04 Q1015
Temperature: 7.0°C ( 45°F)
Dewpoint: 4.0°C ( 39°F) [RH = 81%]
Pressure (altimeter):29.97 inches Hg (1015.0 mb)
Winds:from the SSW (210 degrees) at 14 MPH (12 knots; 6.2 m/s)
Visibility:6 or more sm (10+ km)
Ceiling:at least 12,000 feet AGL
Clouds:sky clear below 12,000 feet AGL
Text:EKRN 170420Z AUTO 20013KT 170V230 9999 FEW016/// 07/04 Q1015
Temperature: 7.0°C ( 45°F)
Dewpoint: 4.0°C ( 39°F) [RH = 81%]
Pressure (altimeter):29.97 inches Hg (1015.0 mb)
Winds:from the SSW (200 degrees) at 15 MPH (13 knots; 6.7 m/s)
Visibility:6 or more sm (10+ km)
Ceiling:at least 12,000 feet AGL
Clouds: few clouds at 1600 feet AGL
Text:EKRN 170350Z AUTO 21012KT 180V240 9999 NCD 07/05 Q1014
Temperature: 7.0°C ( 45°F)
Dewpoint: 5.0°C ( 41°F) [RH = 87%]
Pressure (altimeter):29.94 inches Hg (1014.0 mb)
Winds:from the SSW (210 degrees) at 14 MPH (12 knots; 6.2 m/s)
Visibility:6 or more sm (10+ km)
Ceiling:at least 12,000 feet AGL
Clouds:sky clear below 12,000 feet AGL
Text:EKRN 170320Z AUTO 22012KT 9999 NCD 07/04 Q1014
Temperature: 7.0°C ( 45°F)
Dewpoint: 4.0°C ( 39°F) [RH = 81%]
Pressure (altimeter):29.94 inches Hg (1014.0 mb)
Winds:from the SW (220 degrees) at 14 MPH (12 knots; 6.2 m/s)
Visibility:6 or more sm (10+ km)
Ceiling:at least 12,000 feet AGL
Clouds:sky clear below 12,000 feet AGL
Text:EKRN 170250Z AUTO 22012KT 9999 NCD 07/04 Q1014
Temperature: 7.0°C ( 45°F)
Dewpoint: 4.0°C ( 39°F) [RH = 81%]
Pressure (altimeter):29.94 inches Hg (1014.0 mb)
Winds:from the SW (220 degrees) at 14 MPH (12 knots; 6.2 m/s)
Visibility:6 or more sm (10+ km)
Ceiling:at least 12,000 feet AGL
Clouds:sky clear below 12,000 feet AGL
Text:EKRN 170220Z AUTO 23013KT 9999 FEW020/// 07/04 Q1014
Temperature: 7.0°C ( 45°F)
Dewpoint: 4.0°C ( 39°F) [RH = 81%]
Pressure (altimeter):29.94 inches Hg (1014.0 mb)
Winds:from the SW (230 degrees) at 15 MPH (13 knots; 6.7 m/s)
Visibility:6 or more sm (10+ km)
Ceiling:at least 12,000 feet AGL
Clouds: few clouds at 2000 feet AGL
Text:EKRN 170150Z AUTO 22012KT 190V250 9999 NCD 08/04 Q1014
Temperature: 8.0°C ( 46°F)
Dewpoint: 4.0°C ( 39°F) [RH = 76%]
Pressure (altimeter):29.94 inches Hg (1014.0 mb)
Winds:from the SW (220 degrees) at 14 MPH (12 knots; 6.2 m/s)
Visibility:6 or more sm (10+ km)
Ceiling:at least 12,000 feet AGL
Clouds:sky clear below 12,000 feet AGL
Text:EKRN 170120Z AUTO 23015KT 9999 NCD 08/04 Q1013
Temperature: 8.0°C ( 46°F)
Dewpoint: 4.0°C ( 39°F) [RH = 76%]
Pressure (altimeter):29.91 inches Hg (1013.0 mb)
Winds:from the SW (230 degrees) at 17 MPH (15 knots; 7.7 m/s)
Visibility:6 or more sm (10+ km)
Ceiling:at least 12,000 feet AGL
Clouds:sky clear below 12,000 feet AGL
Text:EKRN 170050Z AUTO 23015KT 200V260 9999 NCD 08/04 Q1013
Temperature: 8.0°C ( 46°F)
Dewpoint: 4.0°C ( 39°F) [RH = 76%]
Pressure (altimeter):29.91 inches Hg (1013.0 mb)
Winds:from the SW (230 degrees) at 17 MPH (15 knots; 7.7 m/s)
Visibility:6 or more sm (10+ km)
Ceiling:at least 12,000 feet AGL
Clouds:sky clear below 12,000 feet AGL
Text:EKRN 170020Z AUTO 23018KT 9999 NCD 08/04 Q1012
Temperature: 8.0°C ( 46°F)
Dewpoint: 4.0°C ( 39°F) [RH = 76%]
Pressure (altimeter):29.88 inches Hg (1012.0 mb)
Winds:from the SW (230 degrees) at 21 MPH (18 knots; 9.3 m/s)
Visibility:6 or more sm (10+ km)
Ceiling:at least 12,000 feet AGL
Clouds:sky clear below 12,000 feet AGL
Text:EKRN 162350Z AUTO 23018KT 9999 NCD 08/04 Q1011
Temperature: 8.0°C ( 46°F)
Dewpoint: 4.0°C ( 39°F) [RH = 76%]
Pressure (altimeter):29.85 inches Hg (1011.0 mb)
Winds:from the SW (230 degrees) at 21 MPH (18 knots; 9.3 m/s)
Visibility:6 or more sm (10+ km)
Ceiling:at least 12,000 feet AGL
Clouds:sky clear below 12,000 feet AGL
Text:EKRN 162320Z AUTO 23019KT 9999 FEW042/// 08/05 Q1011
Temperature: 8.0°C ( 46°F)
Dewpoint: 5.0°C ( 41°F) [RH = 81%]
Pressure (altimeter):29.85 inches Hg (1011.0 mb)
Winds:from the SW (230 degrees) at 22 MPH (19 knots; 9.8 m/s)
Visibility:6 or more sm (10+ km)
Ceiling:at least 12,000 feet AGL
Clouds: few clouds at 4200 feet AGL
Text:EKRN 162250Z AUTO 22020KT 9999 BKN018/// BKN044/// 08/05 Q1011
Temperature: 8.0°C ( 46°F)
Dewpoint: 5.0°C ( 41°F) [RH = 81%]
Pressure (altimeter):29.85 inches Hg (1011.0 mb)
Winds:from the SW (220 degrees) at 23 MPH (20 knots; 10.3 m/s)
Visibility:6 or more sm (10+ km)
Ceiling:1800 feet AGL
Clouds: broken clouds at 1800 feet AGL, broken clouds at 4400 feet AGL
Text:EKRN 162220Z AUTO 23020G30KT 9999 BKN018/// BKN043/// 08/05 Q1011
Temperature: 8.0°C ( 46°F)
Dewpoint: 5.0°C ( 41°F) [RH = 81%]
Pressure (altimeter):29.85 inches Hg (1011.0 mb)
Winds:from the SW (230 degrees) at 23 MPH (20 knots; 10.3 m/s) gusting to 34 MPH (30 knots; 15.4 m/s)
Visibility:6 or more sm (10+ km)
Ceiling:1800 feet AGL
Clouds: broken clouds at 1800 feet AGL, broken clouds at 4300 feet AGL
Text:EKRN 162150Z AUTO 22020G30KT 9999 OVC016/// 08/05 Q1010
Temperature: 8.0°C ( 46°F)
Dewpoint: 5.0°C ( 41°F) [RH = 81%]
Pressure (altimeter):29.82 inches Hg (1010.0 mb)
Winds:from the SW (220 degrees) at 23 MPH (20 knots; 10.3 m/s) gusting to 34 MPH (30 knots; 15.4 m/s)
Visibility:6 or more sm (10+ km)
Ceiling:1600 feet AGL
Clouds: overcast cloud deck at 1600 feet AGL
Text:EKRN 162120Z AUTO 22021KT 190V250 9999 OVC016/// 08/05 Q1010
Temperature: 8.0°C ( 46°F)
Dewpoint: 5.0°C ( 41°F) [RH = 81%]
Pressure (altimeter):29.82 inches Hg (1010.0 mb)
Winds:from the SW (220 degrees) at 24 MPH (21 knots; 10.8 m/s)
Visibility:6 or more sm (10+ km)
Ceiling:1600 feet AGL
Clouds: overcast cloud deck at 1600 feet AGL
Text:EKRN 162050Z AUTO 23021KT 9999 OVC016/// 08/05 Q1009
Temperature: 8.0°C ( 46°F)
Dewpoint: 5.0°C ( 41°F) [RH = 81%]
Pressure (altimeter):29.79 inches Hg (1009.0 mb)
Winds:from the SW (230 degrees) at 24 MPH (21 knots; 10.8 m/s)
Visibility:6 or more sm (10+ km)
Ceiling:1600 feet AGL
Clouds: overcast cloud deck at 1600 feet AGL
Text:EKRN 162020Z AUTO 22021KT 9999 OVC015/// 07/05 Q1009
Temperature: 7.0°C ( 45°F)
Dewpoint: 5.0°C ( 41°F) [RH = 87%]
Pressure (altimeter):29.79 inches Hg (1009.0 mb)
Winds:from the SW (220 degrees) at 24 MPH (21 knots; 10.8 m/s)
Visibility:6 or more sm (10+ km)
Ceiling:1500 feet AGL
Clouds: overcast cloud deck at 1500 feet AGL
Text:EKRN 161950Z AUTO 22021KT 9999 OVC015/// 07/05 Q1009
Temperature: 7.0°C ( 45°F)
Dewpoint: 5.0°C ( 41°F) [RH = 87%]
Pressure (altimeter):29.79 inches Hg (1009.0 mb)
Winds:from the SW (220 degrees) at 24 MPH (21 knots; 10.8 m/s)
Visibility:6 or more sm (10+ km)
Ceiling:1500 feet AGL
Clouds: overcast cloud deck at 1500 feet AGL
Text:EKRN 161920Z AUTO 21018G29KT 9999 OVC015/// 07/05 Q1008
Temperature: 7.0°C ( 45°F)
Dewpoint: 5.0°C ( 41°F) [RH = 87%]
Pressure (altimeter):29.76 inches Hg (1008.0 mb)
Winds:from the SSW (210 degrees) at 21 MPH (18 knots; 9.3 m/s) gusting to 33 MPH (29 knots; 14.9 m/s)
Visibility:6 or more sm (10+ km)
Ceiling:1500 feet AGL
Clouds: overcast cloud deck at 1500 feet AGL
Text:EKRN 161850Z AUTO 22020KT 9999 OVC015/// 07/05 Q1007
Temperature: 7.0°C ( 45°F)
Dewpoint: 5.0°C ( 41°F) [RH = 87%]
Pressure (altimeter):29.73 inches Hg (1007.0 mb)
Winds:from the SW (220 degrees) at 23 MPH (20 knots; 10.3 m/s)
Visibility:6 or more sm (10+ km)
Ceiling:1500 feet AGL
Clouds: overcast cloud deck at 1500 feet AGL
Text:EKRN 161820Z AUTO 22019G34KT 9999 OVC015/// 07/04 Q1007
Temperature: 7.0°C ( 45°F)
Dewpoint: 4.0°C ( 39°F) [RH = 81%]
Pressure (altimeter):29.73 inches Hg (1007.0 mb)
Winds:from the SW (220 degrees) at 22 MPH (19 knots; 9.8 m/s) gusting to 39 MPH (34 knots; 17.5 m/s)
Visibility:6 or more sm (10+ km)
Ceiling:1500 feet AGL
Clouds: overcast cloud deck at 1500 feet AGL
Text:EKRN 161750Z AUTO 22019G29KT 190V250 9999 BKN015/// OVC034/// 08/05 Q1006
Temperature: 8.0°C ( 46°F)
Dewpoint: 5.0°C ( 41°F) [RH = 81%]
Pressure (altimeter):29.70 inches Hg (1006.0 mb)
Winds:from the SW (220 degrees) at 22 MPH (19 knots; 9.8 m/s) gusting to 33 MPH (29 knots; 14.9 m/s)
Visibility:6 or more sm (10+ km)
Ceiling:1500 feet AGL
Clouds: broken clouds at 1500 feet AGL, overcast cloud deck at 3400 feet AGL
Text:EKRN 161720Z AUTO 22019G30KT 180V240 9999 BKN013/// OVC034/// 08/06 Q1006
Temperature: 8.0°C ( 46°F)
Dewpoint: 6.0°C ( 43°F) [RH = 87%]
Pressure (altimeter):29.70 inches Hg (1006.0 mb)
Winds:from the SW (220 degrees) at 22 MPH (19 knots; 9.8 m/s) gusting to 34 MPH (30 knots; 15.4 m/s)
Visibility:6 or more sm (10+ km)
Ceiling:1300 feet AGL
Clouds: broken clouds at 1300 feet AGL, overcast cloud deck at 3400 feet AGL
Text:EKRN 161650Z AUTO 21018KT 9999 OVC010/// 09/07 Q1005
Temperature: 9.0°C ( 48°F)
Dewpoint: 7.0°C ( 45°F) [RH = 87%]
Pressure (altimeter):29.68 inches Hg (1005.0 mb)
Winds:from the SSW (210 degrees) at 21 MPH (18 knots; 9.3 m/s)
Visibility:6 or more sm (10+ km)
Ceiling:1000 feet AGL
Clouds: overcast cloud deck at 1000 feet AGL
Text:EKRN 161620Z AUTO 22018G29KT 9999 OVC011/// 09/08 Q1005
Temperature: 9.0°C ( 48°F)
Dewpoint: 8.0°C ( 46°F) [RH = 93%]
Pressure (altimeter):29.68 inches Hg (1005.0 mb)
Winds:from the SW (220 degrees) at 21 MPH (18 knots; 9.3 m/s) gusting to 33 MPH (29 knots; 14.9 m/s)
Visibility:6 or more sm (10+ km)
Ceiling:1100 feet AGL
Clouds: overcast cloud deck at 1100 feet AGL
Text:EKRN 161550Z AUTO 20020KT 9999 OVC011/// 09/08 Q1004
Temperature: 9.0°C ( 48°F)
Dewpoint: 8.0°C ( 46°F) [RH = 93%]
Pressure (altimeter):29.65 inches Hg (1004.0 mb)
Winds:from the SSW (200 degrees) at 23 MPH (20 knots; 10.3 m/s)
Visibility:6 or more sm (10+ km)
Ceiling:1100 feet AGL
Clouds: overcast cloud deck at 1100 feet AGL
Text:EKRN 161520Z AUTO 19022KT 9999 OVC013/// 10/09 Q1004
Temperature: 10.0°C ( 50°F)
Dewpoint: 9.0°C ( 48°F) [RH = 93%]
Pressure (altimeter):29.65 inches Hg (1004.0 mb)
Winds:from the S (190 degrees) at 25 MPH (22 knots; 11.3 m/s)
Visibility:6 or more sm (10+ km)
Ceiling:1300 feet AGL
Clouds: overcast cloud deck at 1300 feet AGL
Text:EKRN 161450Z AUTO 18018KT 9999 BKN017/// BKN052/// OVC063/// 11/09 Q1004
Temperature: 11.0°C ( 52°F)
Dewpoint: 9.0°C ( 48°F) [RH = 87%]
Pressure (altimeter):29.65 inches Hg (1004.0 mb)
Winds:from the S (180 degrees) at 21 MPH (18 knots; 9.3 m/s)
Visibility:6 or more sm (10+ km)
Ceiling:1700 feet AGL
Clouds: broken clouds at 1700 feet AGL, broken clouds at 5200 feet AGL, overcast cloud deck at 6300 feet AGL
Text:EKRN 161420Z AUTO 17015KT 9999 BKN016/// OVC047/// 11/10 Q1003
Temperature: 11.0°C ( 52°F)
Dewpoint: 10.0°C ( 50°F) [RH = 94%]
Pressure (altimeter):29.62 inches Hg (1003.0 mb)
Winds:from the S (170 degrees) at 17 MPH (15 knots; 7.7 m/s)
Visibility:6 or more sm (10+ km)
Ceiling:1600 feet AGL
Clouds: broken clouds at 1600 feet AGL, overcast cloud deck at 4700 feet AGL
Text:EKRN 161350Z AUTO 16014KT 9999 OVC014/// 11/10 Q1003
Temperature: 11.0°C ( 52°F)
Dewpoint: 10.0°C ( 50°F) [RH = 94%]
Pressure (altimeter):29.62 inches Hg (1003.0 mb)
Winds:from the SSE (160 degrees) at 16 MPH (14 knots; 7.2 m/s)
Visibility:6 or more sm (10+ km)
Ceiling:1400 feet AGL
Clouds: overcast cloud deck at 1400 feet AGL
Text:EKRN 161320Z AUTO 14012KT 8000 OVC015/// 10/10 Q1003
Temperature: 10.0°C ( 50°F)
Dewpoint: 10.0°C ( 50°F) [RH = 100%]
Pressure (altimeter):29.62 inches Hg (1003.0 mb)
Winds:from the SE (140 degrees) at 14 MPH (12 knots; 6.2 m/s)
Visibility: 5 sm ( 8 km)
Ceiling:1500 feet AGL
Clouds: overcast cloud deck at 1500 feet AGL
Text:EKRN 161250Z AUTO 13011KT 8000 OVC017/// 10/10 Q1003
Temperature: 10.0°C ( 50°F)
Dewpoint: 10.0°C ( 50°F) [RH = 100%]
Pressure (altimeter):29.62 inches Hg (1003.0 mb)
Winds:from the SE (130 degrees) at 13 MPH (11 knots; 5.7 m/s)
Visibility: 5 sm ( 8 km)
Ceiling:1700 feet AGL
Clouds: overcast cloud deck at 1700 feet AGL
Text:EKRN 161220Z AUTO 13012KT 7000 BKN013/// OVC031/// 10/10 Q1003
Temperature: 10.0°C ( 50°F)
Dewpoint: 10.0°C ( 50°F) [RH = 100%]
Pressure (altimeter):29.62 inches Hg (1003.0 mb)
Winds:from the SE (130 degrees) at 14 MPH (12 knots; 6.2 m/s)
Visibility: 4 sm ( 7 km)
Ceiling:1300 feet AGL
Clouds: broken clouds at 1300 feet AGL, overcast cloud deck at 3100 feet AGL
Text:EKRN 161150Z AUTO 12011KT 4800 BR OVC009/// 10/10 Q1003
Temperature: 10.0°C ( 50°F)
Dewpoint: 10.0°C ( 50°F) [RH = 100%]
Pressure (altimeter):29.62 inches Hg (1003.0 mb)
Winds:from the ESE (120 degrees) at 13 MPH (11 knots; 5.7 m/s)
Visibility: 2.98 sm ( 4.80 km)
Ceiling:900 feet AGL
Clouds: overcast cloud deck at 900 feet AGL
Weather:BR (mist)
Text:EKRN 161120Z AUTO 12012KT 3300 -SHRA BR OVC008/// 09/09 Q1003
Temperature: 9.0°C ( 48°F)
Dewpoint: 9.0°C ( 48°F) [RH = 100%]
Pressure (altimeter):29.62 inches Hg (1003.0 mb)
Winds:from the ESE (120 degrees) at 14 MPH (12 knots; 6.2 m/s)
Visibility: 2.05 sm ( 3.30 km)
Ceiling:800 feet AGL
Clouds: overcast cloud deck at 800 feet AGL
Weather:-SHRA BR (light rain showers, mist)
Text:EKRN 161050Z AUTO 12012KT 4300 -SHRA BR OVC009/// 10/09 Q1003
Temperature: 10.0°C ( 50°F)
Dewpoint: 9.0°C ( 48°F) [RH = 93%]
Pressure (altimeter):29.62 inches Hg (1003.0 mb)
Winds:from the ESE (120 degrees) at 14 MPH (12 knots; 6.2 m/s)
Visibility: 2.67 sm ( 4.30 km)
Ceiling:900 feet AGL
Clouds: overcast cloud deck at 900 feet AGL
Weather:-SHRA BR (light rain showers, mist)
Text:EKRN 161020Z AUTO 11014KT 4300 -SHRA BR BKN011/// OVC054/// 10/09 Q1004
Temperature: 10.0°C ( 50°F)
Dewpoint: 9.0°C ( 48°F) [RH = 93%]
Pressure (altimeter):29.65 inches Hg (1004.0 mb)
Winds:from the ESE (110 degrees) at 16 MPH (14 knots; 7.2 m/s)
Visibility: 2.67 sm ( 4.30 km)
Ceiling:1100 feet AGL
Clouds: broken clouds at 1100 feet AGL, overcast cloud deck at 5400 feet AGL
Weather:-SHRA BR (light rain showers, mist)
Text:EKRN 160950Z AUTO 11013KT 8000 BKN013/// OVC062/// 10/09 Q1004
Temperature: 10.0°C ( 50°F)
Dewpoint: 9.0°C ( 48°F) [RH = 93%]
Pressure (altimeter):29.65 inches Hg (1004.0 mb)
Winds:from the ESE (110 degrees) at 15 MPH (13 knots; 6.7 m/s)
Visibility: 5 sm ( 8 km)
Ceiling:1300 feet AGL
Clouds: broken clouds at 1300 feet AGL, overcast cloud deck at 6200 feet AGL
Text:EKRN 160920Z AUTO 11012KT 8000 SCT012/// OVC042/// 10/08 Q1004
Temperature: 10.0°C ( 50°F)
Dewpoint: 8.0°C ( 46°F) [RH = 87%]
Pressure (altimeter):29.65 inches Hg (1004.0 mb)
Winds:from the ESE (110 degrees) at 14 MPH (12 knots; 6.2 m/s)
Visibility: 5 sm ( 8 km)
Ceiling:4200 feet AGL
Clouds: scattered clouds at 1200 feet AGL, overcast cloud deck at 4200 feet AGL
Text:EKRN 160850Z AUTO 10012KT 8000 SCT042/// BKN054/// 10/08 Q1004
Temperature: 10.0°C ( 50°F)
Dewpoint: 8.0°C ( 46°F) [RH = 87%]
Pressure (altimeter):29.65 inches Hg (1004.0 mb)
Winds:from the E (100 degrees) at 14 MPH (12 knots; 6.2 m/s)
Visibility: 5 sm ( 8 km)
Ceiling:5400 feet AGL
Clouds: scattered clouds at 4200 feet AGL, broken clouds at 5400 feet AGL
Text:EKRN 160820Z AUTO 11015KT 8000 OVC042/// 10/09 Q1005
Temperature: 10.0°C ( 50°F)
Dewpoint: 9.0°C ( 48°F) [RH = 93%]
Pressure (altimeter):29.68 inches Hg (1005.0 mb)
Winds:from the ESE (110 degrees) at 17 MPH (15 knots; 7.7 m/s)
Visibility: 5 sm ( 8 km)
Ceiling:4200 feet AGL
Clouds: overcast cloud deck at 4200 feet AGL

TAF for:EKRN (Ronne/Bornholm Arpt, --, DN) issued at 1722 UTC 17 Nov 2019
Text:TAF EKRN 171722Z 1718/1723 08014KT 9999 FEW010
Forecast period:1800 to 2300 UTC 17 November 2019
Forecast type:FROM: standard forecast or significant change
Winds:from the E (80 degrees) at 16 MPH (14 knots; 7.2 m/s)
Visibility:6 or more sm (10+ km)
Ceiling:at least 12,000 feet AGL
Clouds: few clouds at 1000 feet AGL